Dallas, Oregon
Current Conditions -  °F | °C
As of 7:56 PM on Saturday 25 Oct 2014 (Local Time) from KSLE Reporting Station
Light Rain Light Rain  
Wind Chill: 54°   Ceiling: 6000
Heat Index: 54°   Visibility: 10mi
Dew Point: 49°   Wind: 14mph
Humidity: 83%   Direction: 210°SSW
Pressure: 29.82"   Gusts: NA
Location:  44.92°N, 123.31°W
Report Text: KSLE 260256Z 21012KT 10SM -RA OVC060 12/09 A2982 RMK AO2 RAB04 SLP099 P0005 60005 T01220094 51088
Loading
Personal Weather Stations






























Interactive Weather Map
Tropical Storm Tracking
New forecast layout! Learn more

10-Day Weather Forecast

Advertisements
Track Severe Weather on mobile